createdAt,value
2019-04-21T00:00:45.653Z,14.10
2019-04-21T00:03:16.450Z,11.40
2019-04-21T00:05:52.976Z,16.43
2019-04-21T00:08:27.052Z,11.50
2019-04-21T00:10:48.666Z,13.27
2019-04-21T00:13:08.093Z,12.27
2019-04-21T00:15:29.002Z,17.30
2019-04-21T00:17:51.827Z,12.07
2019-04-21T00:20:27.418Z,11.20
2019-04-21T00:22:53.357Z,13.83
2019-04-21T00:25:23.544Z,11.27
2019-04-21T00:27:51.707Z,13.27
2019-04-21T00:30:22.756Z,12.13
2019-04-21T00:32:39.558Z,14.03
2019-04-21T00:35:00.885Z,16.50
2019-04-21T00:37:30.147Z,18.43
2019-04-21T00:40:12.488Z,21.43
2019-04-21T00:42:30.261Z,20.57
2019-04-21T00:45:00.770Z,21.37
2019-04-21T00:47:27.981Z,17.37
2019-04-21T00:49:52.653Z,15.97
2019-04-21T00:52:28.829Z,16.17
2019-04-21T00:54:58.601Z,14.27
2019-04-21T00:57:17.508Z,12.87
2019-04-21T00:59:46.471Z,12.13
2019-04-21T01:02:06.648Z,13.23
2019-04-21T01:04:37.106Z,12.03
2019-04-21T01:07:02.376Z,13.87
2019-04-21T01:09:27.587Z,13.50
2019-04-21T01:11:56.396Z,13.10
2019-04-21T01:14:32.819Z,14.50
2019-04-21T01:16:56.142Z,12.13
2019-04-21T01:19:10.744Z,12.40
2019-04-21T01:21:19.375Z,12.37
2019-04-21T01:23:44.546Z,11.63
2019-04-21T01:26:25.311Z,10.90
2019-04-21T01:28:54.521Z,11.47
2019-04-21T01:31:17.116Z,15.17
2019-04-21T01:33:50.387Z,18.13
2019-04-21T01:36:14.499Z,21.10
2019-04-21T01:39:03.508Z,20.10
2019-04-21T01:41:16.144Z,26.37
2019-04-21T01:43:33.701Z,19.80
2019-04-21T01:45:58.959Z,19.57
2019-04-21T01:48:21.542Z,27.63
2019-04-21T01:50:51.274Z,23.13
2019-04-21T01:53:24.326Z,22.50
2019-04-21T01:56:05.874Z,17.83
2019-04-21T01:58:18.454Z,20.30
2019-04-21T02:00:50.180Z,16.63
2019-04-21T02:03:34.391Z,17.83
2019-04-21T02:05:51.385Z,12.73
2019-04-21T02:08:13.459Z,11.23
2019-04-21T02:10:46.475Z,11.50
2019-04-21T02:13:04.869Z,10.67
2019-04-21T02:15:36.036Z,10.70
2019-04-21T02:17:59.488Z,11.60
2019-04-21T02:20:20.694Z,11.67
2019-04-21T02:23:10.011Z,10.20
2019-04-21T02:25:21.785Z,9.00
2019-04-21T02:27:55.065Z,8.83
2019-04-21T02:30:21.750Z,8.77
2019-04-21T02:32:47.999Z,9.03
2019-04-21T02:35:25.118Z,9.27
2019-04-21T02:37:46.774Z,9.07
2019-04-21T02:40:14.671Z,9.40
2019-04-21T02:42:41.883Z,8.73
2019-04-21T02:44:59.865Z,12.40
2019-04-21T02:47:37.231Z,11.87
2019-04-21T02:50:07.438Z,14.30
2019-04-21T02:52:23.383Z,13.37
2019-04-21T02:57:22.659Z,18.03
2019-04-21T03:02:17.020Z,18.60
2019-04-21T03:04:46.746Z,14.63
2019-04-21T03:09:37.053Z,13.70
2019-04-21T03:12:14.189Z,11.43
2019-04-21T03:16:58.216Z,11.07
2019-04-21T03:19:41.660Z,11.37
2019-04-21T03:22:02.968Z,13.20
2019-04-21T03:24:17.685Z,19.97
2019-04-21T03:27:01.494Z,15.23
2019-04-21T03:29:19.726Z,20.87
2019-04-21T03:32:05.953Z,26.07
2019-04-21T03:36:52.911Z,29.97
2019-04-21T03:38:53.328Z,29.50
2019-04-21T03:41:32.245Z,27.80
2019-04-21T03:43:50.111Z,25.43
2019-04-21T03:46:28.247Z,32.27
2019-04-21T03:48:51.703Z,24.40
2019-04-21T03:51:18.929Z,24.23
2019-04-21T03:56:00.660Z,22.23
2019-04-21T03:58:47.048Z,21.23
2019-04-21T04:01:13.190Z,25.43
2019-04-21T04:03:55.373Z,23.20
2019-04-21T04:08:52.561Z,21.43
2019-04-21T04:16:07.070Z,10.93
2019-04-21T04:18:39.415Z,9.73
2019-04-21T04:20:51.287Z,10.40
2019-04-21T04:25:43.783Z,11.17
2019-04-21T04:28:28.058Z,12.17
2019-04-21T04:30:37.841Z,13.17
2019-04-21T04:33:14.222Z,14.83
2019-04-21T04:35:34.156Z,15.00
2019-04-21T04:38:00.848Z,16.60
2019-04-21T04:42:58.442Z,17.30
2019-04-21T04:45:34.498Z,21.50
2019-04-21T04:47:53.044Z,16.70
2019-04-21T04:50:17.853Z,17.80
2019-04-21T04:52:36.244Z,15.53
2019-04-21T05:00:18.201Z,13.57
2019-04-21T05:05:07.032Z,10.20
2019-04-21T05:09:47.250Z,11.40
2019-04-21T05:12:03.614Z,13.27
2019-04-21T05:14:39.259Z,14.17
2019-04-21T05:17:26.661Z,13.83
2019-04-21T05:21:48.024Z,12.00
2019-04-21T05:24:13.570Z,14.43
2019-04-21T05:26:33.334Z,15.03
2019-04-21T05:28:56.806Z,15.47
2019-04-21T05:31:38.827Z,16.93
2019-04-21T05:34:03.077Z,19.40
2019-04-21T05:36:30.956Z,18.10
2019-04-21T05:38:58.419Z,23.40
2019-04-21T05:41:20.629Z,25.20
2019-04-21T05:44:01.536Z,24.67
2019-04-21T05:46:25.504Z,29.97
2019-04-21T05:48:54.790Z,20.83
2019-04-21T05:51:21.085Z,17.13
2019-04-21T05:53:46.806Z,15.43
2019-04-21T05:56:17.357Z,16.17
2019-04-21T05:58:46.555Z,15.80
2019-04-21T06:03:47.761Z,13.87
2019-04-21T06:06:14.163Z,11.47
2019-04-21T06:08:34.299Z,11.00
2019-04-21T06:11:00.203Z,12.83
2019-04-21T06:13:26.893Z,9.67
2019-04-21T06:15:58.913Z,10.90
2019-04-21T06:18:21.773Z,9.63
2019-04-21T06:20:40.664Z,10.47
2019-04-21T06:23:13.546Z,11.70
2019-04-21T06:25:51.921Z,15.43
2019-04-21T06:28:03.587Z,12.60
2019-04-21T06:30:32.155Z,15.93
2019-04-21T06:32:52.621Z,16.07
2019-04-21T06:35:41.276Z,15.03
2019-04-21T06:37:59.798Z,12.67
2019-04-21T06:40:28.759Z,13.70
2019-04-21T06:43:08.284Z,16.37
2019-04-21T06:45:25.454Z,13.23
2019-04-21T06:50:10.724Z,11.30
2019-04-21T06:59:54.357Z,13.37
2019-04-21T07:02:36.237Z,10.10
2019-04-21T07:04:50.049Z,11.00
2019-04-21T07:07:14.485Z,10.97
2019-04-21T07:09:35.704Z,10.23
2019-04-21T07:11:59.913Z,12.00
2019-04-21T07:17:09.412Z,11.13
2019-04-21T07:19:30.429Z,13.47
2019-04-21T07:21:51.080Z,12.03
2019-04-21T07:24:21.840Z,13.40
2019-04-21T07:26:42.731Z,10.47
2019-04-21T07:29:14.360Z,11.53
2019-04-21T07:31:40.432Z,11.47
2019-04-21T07:34:25.133Z,11.00
2019-04-21T07:36:38.490Z,11.77
2019-04-21T07:38:49.765Z,8.80
2019-04-21T07:41:13.943Z,8.20
2019-04-21T07:43:39.371Z,9.00
2019-04-21T07:46:06.501Z,8.17
2019-04-21T07:48:37.605Z,11.53
2019-04-21T07:51:25.164Z,9.93
2019-04-21T07:53:55.742Z,12.00
2019-04-21T07:56:06.546Z,15.00
2019-04-21T07:58:49.061Z,9.97
2019-04-21T08:01:12.431Z,10.57
2019-04-21T08:03:38.921Z,12.63
2019-04-21T08:06:06.600Z,14.10
2019-04-21T08:08:26.805Z,10.67
2019-04-21T08:10:50.952Z,12.73
2019-04-21T08:13:31.309Z,25.70
2019-04-21T08:16:09.416Z,13.73
2019-04-21T08:18:12.921Z,18.27
2019-04-21T08:20:34.677Z,12.67
2019-04-21T08:23:05.565Z,9.47
2019-04-21T08:25:41.630Z,7.97
2019-04-21T08:28:01.453Z,10.00
2019-04-21T08:30:32.049Z,9.83
2019-04-21T08:33:02.301Z,11.83
2019-04-21T08:37:44.350Z,10.70
2019-04-21T08:40:17.643Z,11.40
2019-04-21T08:42:38.725Z,10.37
2019-04-21T08:45:10.780Z,8.83
2019-04-21T08:47:33.639Z,12.80
2019-04-21T08:50:00.975Z,7.80
2019-04-21T08:54:57.145Z,8.27
2019-04-21T08:57:33.211Z,6.83
2019-04-21T08:59:59.842Z,11.97
2019-04-21T09:02:29.548Z,7.67
2019-04-21T09:04:52.745Z,7.33
2019-04-21T09:07:19.633Z,7.27
2019-04-21T09:10:00.823Z,9.87
2019-04-21T09:12:10.820Z,7.03
2019-04-21T09:14:36.622Z,7.23
2019-04-21T09:16:56.446Z,6.27
2019-04-21T09:19:41.269Z,8.37
2019-04-21T09:21:55.085Z,6.77
2019-04-21T09:24:22.030Z,7.37
2019-04-21T09:26:48.081Z,8.17
2019-04-21T09:29:04.258Z,6.83
2019-04-21T09:31:25.984Z,5.80
2019-04-21T09:33:50.847Z,7.33
2019-04-21T09:36:18.050Z,7.37
2019-04-21T09:38:43.517Z,5.20
2019-04-21T09:41:06.650Z,5.73
2019-04-21T09:43:41.221Z,8.80
2019-04-21T09:45:58.872Z,5.70
2019-04-21T09:48:24.746Z,6.27
2019-04-21T09:50:50.405Z,7.57
2019-04-21T09:53:24.983Z,4.80
2019-04-21T09:55:48.706Z,7.27
2019-04-21T09:58:18.366Z,5.93
2019-04-21T10:00:45.719Z,8.27
2019-04-21T10:03:06.707Z,6.10
2019-04-21T10:05:27.349Z,5.97
2019-04-21T10:07:53.030Z,5.07
2019-04-21T10:10:17.720Z,3.67
2019-04-21T10:12:43.381Z,5.43
2019-04-21T10:15:08.636Z,5.77
2019-04-21T10:17:35.101Z,5.40
2019-04-21T10:20:00.759Z,6.07
2019-04-21T10:22:26.586Z,2.20
2019-04-21T10:24:52.154Z,5.13
2019-04-21T10:27:17.199Z,4.20
2019-04-21T10:29:44.577Z,4.37
2019-04-21T10:32:09.189Z,4.17
2019-04-21T10:34:34.864Z,3.63
2019-04-21T10:37:00.749Z,3.67
2019-04-21T10:39:25.470Z,2.50
2019-04-21T10:41:51.146Z,4.80
2019-04-21T10:44:17.015Z,4.63
2019-04-21T10:46:42.832Z,4.00
2019-04-21T10:49:08.650Z,3.00
2019-04-21T10:51:33.218Z,4.30
2019-04-21T10:53:58.002Z,5.13
2019-04-21T10:56:29.766Z,4.00
2019-04-21T10:58:50.014Z,3.47
2019-04-21T11:01:16.797Z,4.73
2019-04-21T11:03:43.109Z,4.77
2019-04-21T11:06:12.674Z,3.40
2019-04-21T11:08:41.544Z,6.53
2019-04-21T11:11:05.750Z,4.53
2019-04-21T11:13:30.746Z,4.17
2019-04-21T11:15:55.466Z,6.83
2019-04-21T11:18:19.927Z,4.70
2019-04-21T11:20:44.801Z,5.03
2019-04-21T11:23:10.198Z,5.70
2019-04-21T11:25:35.894Z,4.30
2019-04-21T11:28:00.853Z,6.77
2019-04-21T11:30:25.631Z,4.43
2019-04-21T11:32:51.122Z,3.97
2019-04-21T11:35:17.132Z,4.93
2019-04-21T11:37:42.111Z,4.43
2019-04-21T11:40:12.244Z,5.23
2019-04-21T11:42:35.721Z,5.03
2019-04-21T11:45:00.685Z,3.90
2019-04-21T11:47:30.341Z,5.13
2019-04-21T11:49:55.445Z,5.90
2019-04-21T11:52:20.777Z,6.73
2019-04-21T11:54:46.739Z,6.00
2019-04-21T11:57:15.178Z,5.53
2019-04-21T11:59:37.634Z,7.37
2019-04-21T12:02:03.447Z,4.93
2019-04-21T12:04:29.451Z,5.50
2019-04-21T12:06:55.644Z,5.37
2019-04-21T12:09:20.988Z,3.80
2019-04-21T12:11:45.845Z,3.20
2019-04-21T12:14:10.451Z,7.10
2019-04-21T12:16:35.243Z,4.23
2019-04-21T12:19:00.948Z,3.77
2019-04-21T12:21:28.345Z,4.37
2019-04-21T12:23:52.396Z,5.47
2019-04-21T12:26:18.053Z,4.77
2019-04-21T12:28:43.938Z,3.37
2019-04-21T12:31:11.555Z,4.07
2019-04-21T12:33:56.357Z,3.40
2019-04-21T12:36:21.985Z,3.97
2019-04-21T12:38:50.861Z,4.70
2019-04-21T12:41:13.073Z,4.70
2019-04-21T12:43:38.919Z,3.80
2019-04-21T12:46:04.370Z,4.63
2019-04-21T12:48:29.638Z,3.97
2019-04-21T12:50:54.336Z,6.13
2019-04-21T12:53:19.345Z,3.80
2019-04-21T12:55:46.207Z,3.70
2019-04-21T12:58:11.043Z,3.53
2019-04-21T13:00:36.750Z,3.33
2019-04-21T13:03:01.593Z,6.30
2019-04-21T13:05:27.495Z,3.93
2019-04-21T13:07:53.359Z,3.47
2019-04-21T13:10:20.246Z,4.80
2019-04-21T13:12:45.893Z,3.83
2019-04-21T13:15:10.915Z,3.52
2019-04-21T13:17:35.490Z,3.40
2019-04-21T13:20:01.159Z,5.23
2019-04-21T13:22:26.091Z,3.00
2019-04-21T13:24:51.704Z,3.27
2019-04-21T13:27:17.743Z,4.33
2019-04-21T13:29:42.437Z,3.47
2019-04-21T13:32:08.835Z,3.30
2019-04-21T13:34:33.776Z,3.60
2019-04-21T13:36:59.337Z,4.20
2019-04-21T13:39:50.268Z,4.07
2019-04-21T13:42:06.479Z,3.27
2019-04-21T13:44:23.448Z,3.02
2019-04-21T13:46:49.218Z,6.20
2019-04-21T13:49:13.981Z,2.75
2019-04-21T13:51:38.754Z,3.47
2019-04-21T13:54:04.041Z,6.03
2019-04-21T13:56:28.957Z,4.15
2019-04-21T13:58:53.659Z,5.12
2019-04-21T14:01:18.218Z,3.70
2019-04-21T14:03:43.940Z,4.08
2019-04-21T14:06:08.636Z,5.55
2019-04-21T14:08:33.468Z,4.08
2019-04-21T14:10:59.710Z,3.22
2019-04-21T14:13:24.715Z,3.10
2019-04-21T14:15:51.418Z,3.00
2019-04-21T14:18:15.652Z,4.80
2019-04-21T14:20:40.273Z,3.58
2019-04-21T14:23:15.792Z,5.12
2019-04-21T14:25:32.059Z,3.90
2019-04-21T14:27:57.888Z,6.50
2019-04-21T14:30:24.164Z,4.47
2019-04-21T14:32:49.889Z,9.98
2019-04-21T14:35:14.844Z,6.10
2019-04-21T14:37:40.431Z,3.05
2019-04-21T14:40:10.756Z,4.15
2019-04-21T14:42:33.998Z,4.12
2019-04-21T14:44:58.904Z,3.92
2019-04-21T14:47:31.513Z,4.53
2019-04-21T14:50:00.751Z,3.27
2019-04-21T14:52:26.923Z,3.80
2019-04-21T14:54:54.323Z,4.95
2019-04-21T14:57:19.048Z,3.37
2019-04-21T14:59:44.872Z,3.47
2019-04-21T15:02:09.897Z,2.98
2019-04-21T15:04:35.646Z,3.98
2019-04-21T15:07:01.305Z,3.35
2019-04-21T15:09:27.164Z,6.80
2019-04-21T15:11:52.001Z,3.50
2019-04-21T15:14:17.856Z,6.10
2019-04-21T15:16:42.884Z,4.80
2019-04-21T15:19:08.632Z,3.35
2019-04-21T15:21:33.451Z,3.10
2019-04-21T15:23:58.289Z,3.60
2019-04-21T15:26:24.117Z,6.92
2019-04-21T15:28:48.985Z,3.37
2019-04-21T15:31:20.493Z,3.33
2019-04-21T15:33:41.127Z,4.12
2019-04-21T15:36:07.052Z,4.10
2019-04-21T15:38:31.893Z,4.33
2019-04-21T15:41:00.738Z,5.03
2019-04-21T15:43:22.901Z,3.87
2019-04-21T15:45:48.689Z,8.60
2019-04-21T15:48:14.023Z,3.77
2019-04-21T15:50:39.801Z,3.83
2019-04-21T15:53:12.021Z,3.33
2019-04-21T15:55:53.193Z,6.35
2019-04-21T15:58:36.778Z,4.22
2019-04-21T16:01:02.956Z,4.13
2019-04-21T16:03:28.935Z,4.47
2019-04-21T16:05:53.756Z,6.10
2019-04-21T16:08:18.348Z,5.80
2019-04-21T16:10:48.964Z,5.75
2019-04-21T16:13:09.774Z,6.57
2019-04-21T16:15:34.716Z,4.03
2019-04-21T16:17:59.442Z,3.23
2019-04-21T16:20:24.203Z,4.33
2019-04-21T16:22:50.618Z,6.63
2019-04-21T16:25:16.922Z,6.73
2019-04-21T16:27:41.623Z,7.80
2019-04-21T16:30:08.256Z,6.43
2019-04-21T16:32:34.144Z,3.50
2019-04-21T16:35:03.869Z,7.47
2019-04-21T16:37:25.682Z,5.20
2019-04-21T16:39:51.586Z,5.63
2019-04-21T16:42:16.308Z,4.53
2019-04-21T16:44:41.041Z,3.90
2019-04-21T16:47:07.634Z,5.90
2019-04-21T16:49:33.608Z,5.27
2019-04-21T16:52:10.040Z,5.83
2019-04-21T16:54:35.683Z,7.23
2019-04-21T16:57:01.938Z,5.17
2019-04-21T16:59:28.714Z,9.23
2019-04-21T17:01:54.445Z,8.40
2019-04-21T17:04:20.339Z,6.93
2019-04-21T17:06:45.196Z,6.20
2019-04-21T17:09:10.650Z,7.13
2019-04-21T17:11:37.643Z,6.50
2019-04-21T17:14:01.598Z,6.10
2019-04-21T17:17:13.926Z,6.17
2019-04-21T17:19:01.747Z,5.10
2019-04-21T17:21:19.395Z,3.60
2019-04-21T17:23:44.268Z,6.83
2019-04-21T17:26:08.997Z,5.17
2019-04-21T17:28:34.365Z,8.37
2019-04-21T17:31:00.109Z,7.57
2019-04-21T17:33:28.037Z,5.67
2019-04-21T17:35:51.243Z,4.27
2019-04-21T17:38:16.380Z,6.13
2019-04-21T17:40:42.099Z,6.53
2019-04-21T17:43:10.574Z,4.27
2019-04-21T17:45:33.124Z,6.20
2019-04-21T17:48:03.297Z,5.97
2019-04-21T17:50:43.807Z,7.73
2019-04-21T17:53:12.421Z,5.67
2019-04-21T17:55:40.628Z,5.50
2019-04-21T17:58:22.982Z,9.57
2019-04-21T18:01:10.366Z,5.03
2019-04-21T18:03:39.274Z,5.97
2019-04-21T18:05:52.785Z,4.90
2019-04-21T18:08:18.527Z,3.40
2019-04-21T18:10:42.225Z,5.47
2019-04-21T18:13:04.477Z,6.80
2019-04-21T18:15:40.191Z,6.77
2019-04-21T18:17:48.453Z,4.30
2019-04-21T18:20:15.206Z,4.90
2019-04-21T18:22:45.492Z,6.90
2019-04-21T18:25:25.362Z,3.17
2019-04-21T18:27:38.642Z,6.93
2019-04-21T18:30:06.452Z,5.37
2019-04-21T18:32:36.123Z,8.43
2019-04-21T18:35:13.454Z,12.13
2019-04-21T18:37:45.800Z,9.53
2019-04-21T18:40:15.323Z,10.60
2019-04-21T18:42:53.238Z,8.47
2019-04-21T18:48:04.904Z,11.43
2019-04-21T18:50:41.686Z,9.03
2019-04-21T18:53:11.999Z,4.77
2019-04-21T18:55:35.467Z,6.50
2019-04-21T18:57:56.423Z,11.93
2019-04-21T19:00:26.422Z,7.73
2019-04-21T19:02:52.918Z,11.57
2019-04-21T19:05:17.585Z,6.93
2019-04-21T19:07:57.264Z,5.07
2019-04-21T19:10:29.571Z,8.03
2019-04-21T19:13:21.551Z,10.70
2019-04-21T19:15:16.318Z,15.43
2019-04-21T19:20:18.023Z,14.00
2019-04-21T19:22:38.429Z,19.30
2019-04-21T19:25:05.388Z,10.80
2019-04-21T19:27:28.703Z,10.27
2019-04-21T19:30:05.652Z,10.43
2019-04-21T19:32:25.285Z,7.73
2019-04-21T19:34:34.776Z,11.90
2019-04-21T19:37:04.212Z,7.23
2019-04-21T19:39:39.382Z,6.20
2019-04-21T19:42:00.432Z,9.70
2019-04-21T19:44:33.564Z,7.90
2019-04-21T19:47:08.411Z,5.73
2019-04-21T19:49:35.139Z,7.93
2019-04-21T19:51:46.233Z,5.40
2019-04-21T19:54:11.008Z,6.67
2019-04-21T19:56:27.935Z,8.20
2019-04-21T19:58:52.953Z,9.13
2019-04-21T20:01:17.521Z,8.80
2019-04-21T20:03:44.123Z,4.87
2019-04-21T20:06:14.908Z,5.43
2019-04-21T20:08:49.861Z,5.67
2019-04-21T20:11:19.336Z,4.23
2019-04-21T20:14:18.222Z,8.47
2019-04-21T20:16:12.883Z,7.03
2019-04-21T20:18:27.279Z,10.57
2019-04-21T20:20:46.076Z,8.67
2019-04-21T20:23:16.977Z,5.67
2019-04-21T20:25:43.706Z,4.30
2019-04-21T20:28:14.646Z,6.07
2019-04-21T20:30:53.313Z,4.67
2019-04-21T20:33:33.400Z,5.90
2019-04-21T20:35:46.889Z,4.23
2019-04-21T20:38:02.261Z,8.83
2019-04-21T20:40:27.950Z,5.90
2019-04-21T20:42:54.088Z,7.97
2019-04-21T20:47:43.310Z,3.87
2019-04-21T20:50:16.538Z,6.47
2019-04-21T20:52:48.080Z,4.30
2019-04-21T20:55:04.814Z,4.80
2019-04-21T20:57:37.910Z,4.97
2019-04-21T21:00:08.764Z,4.53
2019-04-21T21:02:36.567Z,5.20
2019-04-21T21:04:46.888Z,5.87
2019-04-21T21:07:34.667Z,4.53
2019-04-21T21:09:57.450Z,5.03
2019-04-21T21:12:34.584Z,3.90
2019-04-21T21:14:42.568Z,4.37
2019-04-21T21:17:13.258Z,6.00
2019-04-21T21:19:39.694Z,3.17
2019-04-21T21:21:57.617Z,6.23
2019-04-21T21:24:38.794Z,5.50
2019-04-21T21:26:54.601Z,5.13
2019-04-21T21:29:25.320Z,3.13
2019-04-21T21:31:47.417Z,5.23
2019-04-21T21:34:16.518Z,5.23
2019-04-21T21:36:42.831Z,3.90
2019-04-21T21:39:10.069Z,4.43
2019-04-21T21:41:23.512Z,3.87
2019-04-21T21:43:42.193Z,3.97
2019-04-21T21:46:26.646Z,3.73
2019-04-21T21:48:47.536Z,4.10
2019-04-21T21:51:05.931Z,3.90
2019-04-21T21:53:28.822Z,3.33
2019-04-21T21:55:52.989Z,4.17
2019-04-21T21:58:25.105Z,5.23
2019-04-21T22:00:49.983Z,3.97
2019-04-21T22:03:19.619Z,5.53
2019-04-21T22:05:48.258Z,4.63
2019-04-21T22:08:04.731Z,4.93
2019-04-21T22:10:29.504Z,3.23
2019-04-21T22:13:02.721Z,4.23
2019-04-21T22:15:24.946Z,5.17
2019-04-21T22:18:07.382Z,4.97
2019-04-21T22:20:33.062Z,4.40
2019-04-21T22:22:48.706Z,4.90
2019-04-21T22:25:12.740Z,8.67
2019-04-21T22:27:33.170Z,5.97
2019-04-21T22:30:01.336Z,6.47
2019-04-21T22:32:28.696Z,5.20
2019-04-21T22:34:54.746Z,5.70
2019-04-21T22:37:30.703Z,5.73
2019-04-21T22:39:57.801Z,4.30
2019-04-21T22:42:17.966Z,3.87
2019-04-21T22:44:36.352Z,4.03
2019-04-21T22:47:11.005Z,4.40
2019-04-21T22:49:28.460Z,3.87
2019-04-21T22:51:53.844Z,4.13
2019-04-21T22:54:25.729Z,5.17
2019-04-21T22:56:56.566Z,4.80
2019-04-21T22:59:15.946Z,5.60
2019-04-21T23:01:42.422Z,5.83
2019-04-21T23:04:06.730Z,5.50
2019-04-21T23:06:34.344Z,4.80
2019-04-21T23:08:57.242Z,7.00
2019-04-21T23:11:21.775Z,5.40
2019-04-21T23:13:54.506Z,4.53
2019-04-21T23:16:13.931Z,7.17
2019-04-21T23:18:54.420Z,4.20
2019-04-21T23:21:23.081Z,5.60
2019-04-21T23:23:51.750Z,4.33
2019-04-21T23:26:18.209Z,5.73
2019-04-21T23:28:45.470Z,4.33
2019-04-21T23:31:12.348Z,4.10
2019-04-21T23:33:20.214Z,4.97
2019-04-21T23:35:46.018Z,4.00
2019-04-21T23:38:10.975Z,4.43
2019-04-21T23:40:40.690Z,4.33
2019-04-21T23:43:09.294Z,5.67
2019-04-21T23:45:35.826Z,5.27
2019-04-21T23:48:10.742Z,4.30
2019-04-21T23:50:33.034Z,5.27
2019-04-21T23:52:47.799Z,4.60
2019-04-21T23:55:13.558Z,6.27
2019-04-21T23:57:43.223Z,6.53
